Symmes Township, Ohio
Current Conditions -  °F | °C
As of 1:16 PM on Saturday 25 Oct 2014 (Local Time) from KHAO Reporting Station
Scattered Clouds Scattered Clouds  
Wind Chill: 70°   Ceiling: Unl
Heat Index: 70°   Visibility: 9mi
Dew Point: 56°   Wind: 6mph
Humidity: 61%   Direction: 220°SW
Pressure: 29.95"   Gusts: NA
Location:  39.2698°N, 84.3325°W
Report Text: KHAO 251716Z AUTO 22005KT 9SM SCT020 21/13 A2995 RMK AO2 T02110133
Loading
Personal Weather Stations






























Interactive Weather Map
Tropical Storm Tracking
New forecast layout! Learn more

10-Day Weather Forecast

Advertisements
Track Severe Weather on mobile